Time,TemperatureF,DewpointF,PressureIn,WindDirection,WindDirectionDegrees,WindSpeedMPH,WindSpeedGustMPH,Humidity,HourlyPrecipIn,Conditions,Clouds,dailyrainin,SoftwareType,DateUTC
2013-09-18 00:01:00,52.7,50.2,30.31,NE,45,0.0,0.0,91,0.00,,,0.00,meteohub,2013-09-18 04:01:00,
2013-09-18 00:02:00,52.5,50.0,30.31,NE,45,0.0,0.0,91,0.00,,,0.00,meteohub,2013-09-18 04:02:00,
2013-09-18 00:04:00,52.5,50.0,30.31,NE,45,0.0,0.0,91,0.00,,,0.00,meteohub,2013-09-18 04:04:00,
2013-09-18 00:10:00,52.5,50.0,30.31,NE,45,0.0,0.0,91,0.00,,,0.00,meteohub,2013-09-18 04:10:00,
2013-09-18 00:12:00,52.3,49.8,30.30,NE,45,0.0,0.0,91,0.00,,,0.00,meteohub,2013-09-18 04:12:00,
2013-09-18 00:13:00,52.3,49.8,30.31,NE,45,0.0,0.0,91,0.00,,,0.00,meteohub,2013-09-18 04:13:00,
2013-09-18 00:19:00,52.0,49.5,30.31,NE,45,0.0,0.0,91,0.00,,,0.00,meteohub,2013-09-18 04:19:00,
2013-09-18 00:25:00,51.8,49.3,30.31,NE,45,0.0,0.0,91,0.00,,,0.00,meteohub,2013-09-18 04:25:00,
2013-09-18 00:31:00,51.6,49.5,30.31,NE,45,0.0,0.0,92,0.00,,,0.00,meteohub,2013-09-18 04:31:00,
2013-09-18 00:37:00,51.4,49.3,30.30,NE,45,0.0,0.0,92,0.00,,,0.00,meteohub,2013-09-18 04:37:00,
2013-09-18 00:42:00,51.4,49.3,30.30,NE,45,0.0,0.0,92,0.00,,,0.00,meteohub,2013-09-18 04:42:00,
2013-09-18 00:47:00,51.3,49.1,30.30,NE,45,0.0,0.0,92,0.00,,,0.00,meteohub,2013-09-18 04:47:00,
2013-09-18 00:52:00,51.3,49.3,30.30,NE,45,0.0,0.0,93,0.00,,,0.00,meteohub,2013-09-18 04:52:00,
2013-09-18 00:57:00,51.1,49.1,30.30,NE,45,0.0,0.0,93,0.00,,,0.00,meteohub,2013-09-18 04:57:00,
2013-09-18 01:02:00,51.1,49.1,30.30,NE,45,0.0,0.0,93,0.00,,,0.00,meteohub,2013-09-18 05:02:00,
2013-09-18 01:07:00,51.1,49.1,30.30,NE,45,0.0,0.0,93,0.00,,,0.00,meteohub,2013-09-18 05:07:00,
2013-09-18 01:12:00,50.7,48.7,30.31,NE,45,0.0,0.0,93,0.00,,,0.00,meteohub,2013-09-18 05:12:00,
2013-09-18 01:17:00,50.7,48.7,30.31,NE,45,0.0,0.0,93,0.00,,,0.00,meteohub,2013-09-18 05:17:00,
2013-09-18 01:22:00,50.5,48.6,30.31,NE,45,0.0,0.0,93,0.00,,,0.00,meteohub,2013-09-18 05:22:00,
2013-09-18 01:28:00,50.5,48.6,30.30,NE,45,0.0,0.0,93,0.00,,,0.00,meteohub,2013-09-18 05:28:00,
2013-09-18 01:34:00,50.4,48.4,30.30,NE,45,0.0,0.0,93,0.00,,,0.00,meteohub,2013-09-18 05:34:00,
2013-09-18 01:37:00,50.4,48.7,30.30,NE,45,0.0,0.0,94,0.00,,,0.00,meteohub,2013-09-18 05:37:00,
2013-09-18 01:43:00,50.4,48.7,30.30,NE,45,0.0,0.0,94,0.00,,,0.00,meteohub,2013-09-18 05:43:00,
2013-09-18 01:49:00,50.2,48.6,30.30,NE,45,0.0,0.0,94,0.00,,,0.00,meteohub,2013-09-18 05:49:00,
2013-09-18 01:55:00,50.2,48.6,30.30,NE,45,0.0,0.0,94,0.00,,,0.00,meteohub,2013-09-18 05:55:00,
2013-09-18 02:01:00,50.2,48.6,30.30,NE,45,0.0,0.0,94,0.00,,,0.00,meteohub,2013-09-18 06:01:00,
2013-09-18 02:07:00,50.2,48.6,30.29,NE,45,0.0,0.0,94,0.00,,,0.00,meteohub,2013-09-18 06:07:00,
2013-09-18 02:12:00,49.8,48.2,30.29,NE,45,0.0,0.0,94,0.00,,,0.00,meteohub,2013-09-18 06:12:00,
2013-09-18 02:17:00,49.8,48.2,30.30,NE,45,0.0,0.0,94,0.00,,,0.00,meteohub,2013-09-18 06:17:00,
2013-09-18 02:22:00,49.8,48.4,30.29,NE,45,0.0,0.0,95,0.00,,,0.00,meteohub,2013-09-18 06:22:00,
2013-09-18 02:29:00,49.5,48.0,30.29,NE,45,0.0,0.0,95,0.00,,,0.00,meteohub,2013-09-18 06:29:00,
2013-09-18 02:35:00,49.5,48.0,30.29,NE,45,0.0,0.0,95,0.00,,,0.00,meteohub,2013-09-18 06:35:00,
2013-09-18 02:41:00,49.3,47.8,30.29,NE,45,0.0,0.0,95,0.00,,,0.00,meteohub,2013-09-18 06:41:00,
2013-09-18 02:47:00,49.1,47.7,30.29,NE,45,0.0,0.0,95,0.00,,,0.00,meteohub,2013-09-18 06:47:00,
2013-09-18 02:52:00,48.9,47.5,30.29,NE,45,0.0,0.0,95,0.00,,,0.00,meteohub,2013-09-18 06:52:00,
2013-09-18 02:57:00,48.9,47.5,30.29,NE,45,0.0,0.0,95,0.00,,,0.00,meteohub,2013-09-18 06:57:00,
2013-09-18 03:02:00,48.7,47.3,30.29,NE,45,0.0,0.0,95,0.00,,,0.00,meteohub,2013-09-18 07:02:00,
2013-09-18 03:07:00,48.7,47.3,30.29,NE,45,0.0,0.0,95,0.00,,,0.00,meteohub,2013-09-18 07:07:00,
2013-09-18 03:12:00,48.7,47.3,30.29,NE,45,0.0,0.0,95,0.00,,,0.00,meteohub,2013-09-18 07:12:00,
2013-09-18 03:17:00,48.7,47.3,30.28,NE,45,0.0,0.0,95,0.00,,,0.00,meteohub,2013-09-18 07:17:00,
2013-09-18 03:22:00,48.4,46.9,30.28,NE,45,0.0,0.0,95,0.00,,,0.00,meteohub,2013-09-18 07:22:00,
2013-09-18 03:27:00,48.4,46.9,30.29,NE,45,0.0,0.0,95,0.00,,,0.00,meteohub,2013-09-18 07:27:00,
2013-09-18 03:32:00,48.4,46.9,30.29,NE,45,0.0,0.0,95,0.00,,,0.00,meteohub,2013-09-18 07:32:00,
2013-09-18 03:37:00,48.4,46.9,30.29,NE,45,0.0,0.0,95,0.00,,,0.00,meteohub,2013-09-18 07:37:00,
2013-09-18 06:26:00,46.8,46.0,30.30,NE,45,0.0,0.0,97,0.00,,,0.00,meteohub,2013-09-18 10:26:00,
2013-09-18 06:32:00,46.8,46.0,30.29,NE,45,0.0,0.0,97,0.00,,,0.00,meteohub,2013-09-18 10:32:00,
2013-09-18 06:50:00,47.3,46.8,30.30,NE,45,0.0,0.0,98,0.00,,,0.00,meteohub,2013-09-18 10:50:00,
2013-09-18 06:56:00,47.3,46.8,30.30,NE,45,0.0,0.0,98,0.00,,,0.00,meteohub,2013-09-18 10:56:00,
2013-09-18 07:02:00,47.3,46.8,30.30,NE,45,0.0,0.0,98,0.00,,,0.00,meteohub,2013-09-18 11:02:00,
2013-09-18 07:51:00,48.4,47.8,30.30,NE,45,0.0,-999.0,98,0.00,,,0.00,meteohub,2013-09-18 11:51:00,
2013-09-18 07:57:00,48.4,47.8,30.30,NE,45,0.0,0.0,98,0.00,,,0.00,meteohub,2013-09-18 11:57:00,
2013-09-18 08:02:00,48.4,47.8,30.30,NE,45,0.0,0.0,98,0.00,,,0.00,meteohub,2013-09-18 12:02:00,
2013-09-18 08:07:00,49.3,49.1,30.30,NE,45,0.0,0.0,99,0.00,,,0.00,meteohub,2013-09-18 12:07:00,
2013-09-18 08:12:00,49.3,49.1,30.30,NE,45,0.0,0.0,99,0.00,,,0.00,meteohub,2013-09-18 12:12:00,
2013-09-18 08:17:00,49.3,49.1,30.30,NE,45,0.0,0.0,99,0.00,,,0.00,meteohub,2013-09-18 12:17:00,
2013-09-18 08:54:00,52.3,52.0,30.30,East,90,3.0,-999.0,99,0.00,,,0.00,meteohub,2013-09-18 12:54:00,
2013-09-18 09:00:00,52.3,52.0,30.30,East,90,3.0,3.0,99,0.00,,,0.00,meteohub,2013-09-18 13:00:00,
2013-09-18 09:06:00,53.1,52.7,30.30,North,-999,-999.0,3.0,99,0.00,,,0.00,meteohub,2013-09-18 13:06:00,
2013-09-18 09:12:00,53.1,52.7,30.30,North,-999,-999.0,3.0,99,0.00,,,0.00,meteohub,2013-09-18 13:12:00,
2013-09-18 09:17:00,53.1,52.7,30.30,North,-999,-999.0,-999.0,99,0.00,,,0.00,meteohub,2013-09-18 13:17:00,
2013-09-18 09:33:00,55.8,55.2,30.30,ENE,68,2.0,-999.0,98,0.00,,,0.00,meteohub,2013-09-18 13:33:00,
2013-09-18 09:39:00,56.5,55.4,30.31,ENE,68,2.0,2.0,96,0.00,,,0.00,meteohub,2013-09-18 13:39:00,
2013-09-18 09:45:00,57.0,55.6,30.31,East,90,1.0,2.0,95,0.00,,,0.00,meteohub,2013-09-18 13:45:00,
2013-09-18 09:51:00,57.4,55.9,30.31,East,90,2.0,2.0,95,0.00,,,0.00,meteohub,2013-09-18 13:51:00,
2013-09-18 09:57:00,58.3,55.6,30.31,ENE,68,2.0,4.0,91,1.51,,,1.51,meteohub,2013-09-18 13:57:00,
2013-09-18 10:02:00,58.8,56.1,30.31,ENE,68,2.0,4.0,91,1.51,,,1.51,meteohub,2013-09-18 14:02:00,
2013-09-18 10:07:00,59.5,56.7,30.31,NE,45,4.0,4.0,90,1.51,,,1.51,meteohub,2013-09-18 14:07:00,
2013-09-18 10:12:00,60.8,56.7,30.31,ENE,68,2.0,4.0,86,1.51,,,1.51,meteohub,2013-09-18 14:12:00,
2013-09-18 10:17:00,61.3,56.8,30.31,ENE,68,2.0,4.0,85,1.51,,,1.51,meteohub,2013-09-18 14:17:00,
2013-09-18 10:22:00,62.8,55.8,30.31,East,90,2.0,4.0,78,1.51,,,1.51,meteohub,2013-09-18 14:22:00,
2013-09-18 10:27:00,63.1,55.8,30.31,East,90,1.0,4.0,77,1.51,,,1.51,meteohub,2013-09-18 14:27:00,
2013-09-18 10:34:00,63.9,54.7,30.31,ENE,68,4.0,4.0,72,1.51,,,1.51,meteohub,2013-09-18 14:34:00,
2013-09-18 10:40:00,64.8,55.2,30.31,ENE,68,2.0,4.0,71,1.51,,,1.51,meteohub,2013-09-18 14:40:00,
2013-09-18 10:46:00,65.1,54.7,30.30,East,90,3.0,4.0,69,1.51,,,1.51,meteohub,2013-09-18 14:46:00,
2013-09-18 10:52:00,66.0,55.6,30.31,ENE,68,2.0,3.0,69,1.51,,,1.51,meteohub,2013-09-18 14:52:00,
2013-09-18 10:57:00,66.2,54.5,30.30,ENE,68,2.0,3.0,66,0.00,,,1.51,meteohub,2013-09-18 14:57:00,
2013-09-18 11:05:00,66.7,54.7,30.30,East,90,2.0,3.0,65,0.00,,,1.51,meteohub,2013-09-18 15:05:00,
2013-09-18 11:11:00,67.5,54.5,30.30,ENE,68,2.0,4.0,63,0.00,,,1.51,meteohub,2013-09-18 15:11:00,
2013-09-18 11:17:00,67.5,53.6,30.30,ENE,68,2.0,4.0,61,0.00,,,1.51,meteohub,2013-09-18 15:17:00,
2013-09-18 11:22:00,67.8,52.5,30.30,ENE,68,2.0,4.0,58,0.00,,,1.51,meteohub,2013-09-18 15:22:00,
2013-09-18 11:29:00,68.2,52.3,30.30,ENE,68,3.0,3.0,57,0.00,,,1.51,meteohub,2013-09-18 15:29:00,
2013-09-18 11:35:00,68.4,50.5,30.30,East,90,3.0,3.0,53,0.00,,,1.51,meteohub,2013-09-18 15:35:00,
2013-09-18 11:41:00,69.3,51.4,30.29,ENE,68,3.0,3.0,53,0.00,,,1.51,meteohub,2013-09-18 15:41:00,
2013-09-18 11:47:00,69.3,50.9,30.29,ENE,68,3.0,3.0,52,0.00,,,1.51,meteohub,2013-09-18 15:47:00,
2013-09-18 11:53:00,68.5,49.6,30.29,East,90,2.0,3.0,51,0.00,,,1.51,meteohub,2013-09-18 15:53:00,
2013-09-18 11:59:00,69.4,51.1,30.28,ENE,68,2.0,3.0,52,0.00,,,1.51,meteohub,2013-09-18 15:59:00,
2013-09-18 12:05:00,70.2,51.3,30.28,ENE,68,2.0,4.0,51,0.00,,,1.51,meteohub,2013-09-18 16:05:00,
2013-09-18 12:07:00,70.2,50.7,30.28,ENE,68,2.0,4.0,50,0.00,,,1.51,meteohub,2013-09-18 16:07:00,
2013-09-18 12:12:00,70.5,52.0,30.28,ENE,68,2.0,4.0,52,0.00,,,1.51,meteohub,2013-09-18 16:12:00,
2013-09-18 12:17:00,71.1,51.4,30.27,ENE,68,2.0,4.0,50,0.00,,,1.51,meteohub,2013-09-18 16:17:00,
2013-09-18 12:22:00,71.6,50.9,30.27,East,90,2.0,4.0,48,0.00,,,1.51,meteohub,2013-09-18 16:22:00,
2013-09-18 12:27:00,71.8,49.3,30.27,ENE,68,2.0,4.0,45,0.00,,,1.51,meteohub,2013-09-18 16:27:00,
2013-09-18 12:32:00,72.1,47.8,30.27,ENE,68,3.0,4.0,42,0.00,,,1.51,meteohub,2013-09-18 16:32:00,
2013-09-18 12:37:00,72.0,45.7,30.27,SE,135,3.0,4.0,39,0.00,,,1.51,meteohub,2013-09-18 16:37:00,
2013-09-18 12:42:00,71.8,45.5,30.26,South,180,4.0,6.0,39,0.00,,,1.51,meteohub,2013-09-18 16:42:00,
2013-09-18 12:47:00,71.4,45.9,30.26,NE,45,2.0,6.0,40,0.00,,,1.51,meteohub,2013-09-18 16:47:00,
2013-09-18 12:52:00,70.9,45.3,30.26,SE,135,3.0,6.0,40,0.00,,,1.51,meteohub,2013-09-18 16:52:00,
2013-09-18 12:57:00,70.5,45.7,30.26,ENE,68,1.0,4.0,41,0.00,,,1.51,meteohub,2013-09-18 16:57:00,
2013-09-18 13:02:00,71.1,45.5,30.26,SE,135,3.0,3.0,40,0.00,,,1.51,meteohub,2013-09-18 17:02:00,
2013-09-18 13:09:00,71.6,43.2,30.25,SE,135,4.0,4.0,36,0.00,,,1.51,meteohub,2013-09-18 17:09:00,
2013-09-18 13:15:00,71.6,43.2,30.25,NE,45,5.0,5.0,36,0.00,,,1.51,meteohub,2013-09-18 17:15:00,
2013-09-18 13:21:00,71.1,44.8,30.25,SE,135,2.0,5.0,39,0.00,,,1.51,meteohub,2013-09-18 17:21:00,
2013-09-18 13:27:00,70.5,45.0,30.25,SE,135,2.0,5.0,40,0.00,,,1.51,meteohub,2013-09-18 17:27:00,
2013-09-18 13:32:00,71.1,43.5,30.25,NE,45,3.0,5.0,37,0.00,,,1.51,meteohub,2013-09-18 17:32:00,
2013-09-18 13:37:00,71.8,41.2,30.25,NE,45,2.0,3.0,33,0.00,,,1.51,meteohub,2013-09-18 17:37:00,
2013-09-18 13:42:00,71.6,43.9,30.24,NE,45,1.0,3.0,37,0.00,,,1.51,meteohub,2013-09-18 17:42:00,
2013-09-18 13:48:00,71.6,43.2,30.24,South,180,4.0,4.0,36,0.00,,,1.51,meteohub,2013-09-18 17:48:00,
2013-09-18 13:54:00,72.0,42.1,30.23,SE,135,2.0,2.0,34,0.00,,,1.51,meteohub,2013-09-18 17:54:00,
2013-09-18 14:00:00,72.5,43.3,30.23,East,90,2.0,4.0,35,0.00,,,1.51,meteohub,2013-09-18 18:00:00,
2013-09-18 14:06:00,73.2,42.4,30.23,NE,45,2.0,3.0,33,0.00,,,1.51,meteohub,2013-09-18 18:06:00,
2013-09-18 14:12:00,73.4,43.3,30.23,SE,135,2.0,5.0,34,0.00,,,1.51,meteohub,2013-09-18 18:12:00,
2013-09-18 14:17:00,72.9,40.5,30.23,NE,45,4.0,5.0,31,0.00,,,1.51,meteohub,2013-09-18 18:17:00,
2013-09-18 14:22:00,73.0,40.6,30.22,East,90,2.0,5.0,31,0.00,,,1.51,meteohub,2013-09-18 18:22:00,
2013-09-18 14:27:00,73.4,39.2,30.22,SE,135,4.0,5.0,29,0.00,,,1.51,meteohub,2013-09-18 18:27:00,
2013-09-18 14:34:00,74.5,42.6,30.22,East,90,2.0,4.0,32,0.00,,,1.51,meteohub,2013-09-18 18:34:00,
2013-09-18 14:40:00,74.5,43.5,30.22,East,90,2.0,4.0,33,0.00,,,1.51,meteohub,2013-09-18 18:40:00,
2013-09-18 14:46:00,74.3,40.8,30.21,NE,45,3.0,3.0,30,0.00,,,1.51,meteohub,2013-09-18 18:46:00,
2013-09-18 14:52:00,73.9,42.3,30.21,SE,135,1.0,3.0,32,0.00,,,1.51,meteohub,2013-09-18 18:52:00,
2013-09-18 14:57:00,74.3,44.1,30.21,SE,135,2.0,5.0,34,0.00,,,1.51,meteohub,2013-09-18 18:57:00,
2013-09-18 15:04:00,74.5,42.6,30.21,NE,45,3.0,5.0,32,0.00,,,1.51,meteohub,2013-09-18 19:04:00,
2013-09-18 15:10:00,74.3,39.9,30.21,NE,45,2.0,3.0,29,0.00,,,1.51,meteohub,2013-09-18 19:10:00,
2013-09-18 15:17:00,74.7,38.5,30.21,NE,45,2.0,3.0,27,0.00,,,1.51,meteohub,2013-09-18 19:17:00,
2013-09-18 15:22:00,75.6,38.3,30.20,NE,45,2.0,2.0,26,0.00,,,1.51,meteohub,2013-09-18 19:22:00,
2013-09-18 15:27:00,75.2,41.7,30.20,NE,45,2.0,2.0,30,0.00,,,1.51,meteohub,2013-09-18 19:27:00,
2013-09-18 15:32:00,74.8,36.7,30.20,NE,45,2.0,4.0,25,0.00,,,1.51,meteohub,2013-09-18 19:32:00,
2013-09-18 15:38:00,75.4,37.0,30.20,SE,135,2.0,4.0,25,0.00,,,1.51,meteohub,2013-09-18 19:38:00,
2013-09-18 15:44:00,75.7,37.4,30.19,South,180,3.0,4.0,25,0.00,,,1.51,meteohub,2013-09-18 19:44:00,
2013-09-18 15:50:00,76.3,39.9,30.19,South,180,1.0,4.0,27,0.00,,,1.51,meteohub,2013-09-18 19:50:00,
2013-09-18 15:56:00,76.3,37.9,30.19,South,180,1.0,4.0,25,0.00,,,1.51,meteohub,2013-09-18 19:56:00,
2013-09-18 16:02:00,75.9,39.6,30.19,South,180,2.0,3.0,27,0.00,,,1.51,meteohub,2013-09-18 20:02:00,
2013-09-18 16:07:00,75.0,39.7,30.19,South,180,1.0,2.0,28,0.00,,,1.51,meteohub,2013-09-18 20:07:00,
2013-09-18 16:12:00,74.8,42.3,30.19,NE,45,2.0,2.0,31,0.00,,,1.51,meteohub,2013-09-18 20:12:00,
2013-09-18 16:17:00,74.7,38.5,30.18,NE,45,1.0,2.0,27,0.00,,,1.51,meteohub,2013-09-18 20:17:00,
2013-09-18 16:22:00,74.3,43.3,30.18,NE,45,1.0,2.0,33,0.00,,,1.51,meteohub,2013-09-18 20:22:00,
2013-09-18 16:30:00,73.0,46.6,30.18,NE,45,0.0,2.0,39,0.00,,,1.51,meteohub,2013-09-18 20:30:00,
2013-09-18 16:36:00,72.7,47.7,30.18,NE,45,1.0,2.0,41,0.00,,,1.51,meteohub,2013-09-18 20:36:00,
2013-09-18 16:42:00,73.4,44.8,30.18,NE,45,2.0,2.0,36,0.00,,,1.51,meteohub,2013-09-18 20:42:00,
2013-09-18 16:47:00,74.3,46.4,30.18,ENE,68,2.0,2.0,37,0.00,,,1.51,meteohub,2013-09-18 20:47:00,
2013-09-18 16:54:00,74.7,44.4,30.18,NE,45,2.0,2.0,34,0.00,,,1.51,meteohub,2013-09-18 20:54:00,
2013-09-18 17:00:00,75.0,47.7,30.18,SE,135,2.0,3.0,38,0.00,,,1.51,meteohub,2013-09-18 21:00:00,
2013-09-18 17:06:00,74.5,45.9,30.18,SE,135,2.0,3.0,36,0.00,,,1.51,meteohub,2013-09-18 21:06:00,
2013-09-18 17:12:00,74.5,48.6,30.18,ENE,68,2.0,3.0,40,0.00,,,1.51,meteohub,2013-09-18 21:12:00,
2013-09-18 17:17:00,74.1,50.2,30.18,NE,45,1.0,3.0,43,0.00,,,1.51,meteohub,2013-09-18 21:17:00,
2013-09-18 17:22:00,73.2,50.0,30.17,NE,45,1.0,3.0,44,0.00,,,1.51,meteohub,2013-09-18 21:22:00,
2013-09-18 17:27:00,72.5,50.0,30.18,NE,45,1.0,2.0,45,0.00,,,1.51,meteohub,2013-09-18 21:27:00,
2013-09-18 17:37:00,70.9,49.6,30.17,NE,45,1.0,2.0,47,0.00,,,1.51,meteohub,2013-09-18 21:37:00,
2013-09-18 17:42:00,70.0,49.5,30.17,NE,45,1.0,2.0,48,0.00,,,1.51,meteohub,2013-09-18 21:42:00,
2013-09-18 17:47:00,69.1,49.6,30.17,NE,45,1.0,2.0,50,0.00,,,1.51,meteohub,2013-09-18 21:47:00,
2013-09-18 17:52:00,68.2,49.8,30.17,NE,45,0.0,2.0,52,0.00,,,1.51,meteohub,2013-09-18 21:52:00,
2013-09-18 17:57:00,67.8,50.0,30.17,NE,45,0.0,1.0,53,0.00,,,1.51,meteohub,2013-09-18 21:57:00,
2013-09-18 18:02:00,67.3,50.5,30.17,NE,45,0.0,1.0,55,0.00,,,1.51,meteohub,2013-09-18 22:02:00,
2013-09-18 18:07:00,66.7,51.4,30.18,NE,45,0.0,0.0,58,0.00,,,1.51,meteohub,2013-09-18 22:07:00,
2013-09-18 18:13:00,66.4,51.6,30.18,NE,45,0.0,0.0,59,0.00,,,1.51,meteohub,2013-09-18 22:13:00,
2013-09-18 18:19:00,66.0,52.2,30.18,NE,45,0.0,0.0,61,0.00,,,1.51,meteohub,2013-09-18 22:19:00,
2013-09-18 18:25:00,65.8,52.9,30.17,NE,45,0.0,0.0,63,0.00,,,1.51,meteohub,2013-09-18 22:25:00,
2013-09-18 18:32:00,65.5,53.4,30.17,NE,45,1.0,1.0,65,0.00,,,1.51,meteohub,2013-09-18 22:32:00,
2013-09-18 18:37:00,65.1,53.1,30.18,NE,45,0.0,1.0,65,0.00,,,1.51,meteohub,2013-09-18 22:37:00,
2013-09-18 18:42:00,64.8,52.7,30.17,NE,45,0.0,1.0,65,0.00,,,1.51,meteohub,2013-09-18 22:42:00,
2013-09-18 18:47:00,64.4,52.3,30.18,NE,45,1.0,1.0,65,0.00,,,1.51,meteohub,2013-09-18 22:47:00,
2013-09-18 18:52:00,64.2,52.7,30.18,NE,45,1.0,1.0,66,0.00,,,1.51,meteohub,2013-09-18 22:52:00,
2013-09-18 18:57:00,63.9,52.7,30.18,NE,45,0.0,1.0,67,0.00,,,1.51,meteohub,2013-09-18 22:57:00,
2013-09-18 19:02:00,63.5,52.7,30.17,NE,45,0.0,1.0,68,0.00,,,1.51,meteohub,2013-09-18 23:02:00,
2013-09-18 19:08:00,63.1,53.6,30.18,NE,45,0.0,1.0,71,0.00,,,1.51,meteohub,2013-09-18 23:08:00,
2013-09-18 19:14:00,62.6,53.4,30.18,NE,45,0.0,1.0,72,0.00,,,1.51,meteohub,2013-09-18 23:14:00,
2013-09-18 19:20:00,61.9,53.1,30.17,NE,45,1.0,0.0,73,0.00,,,1.51,meteohub,2013-09-18 23:20:00,
2013-09-18 19:26:00,61.3,53.1,30.17,NE,45,0.0,1.0,74,0.00,,,1.51,meteohub,2013-09-18 23:26:00,
2013-09-18 19:32:00,60.8,52.9,30.17,NE,45,0.0,1.0,75,0.00,,,1.51,meteohub,2013-09-18 23:32:00,
2013-09-18 19:39:00,60.1,52.5,30.17,NE,45,0.0,1.0,76,0.00,,,1.51,meteohub,2013-09-18 23:39:00,
2013-09-18 19:45:00,59.5,52.3,30.18,NE,45,1.0,0.0,77,0.00,,,1.51,meteohub,2013-09-18 23:45:00,
2013-09-18 19:51:00,59.2,52.7,30.18,NE,45,0.0,1.0,79,0.00,,,1.51,meteohub,2013-09-18 23:51:00,
2013-09-18 19:57:00,58.6,52.5,30.18,NE,45,1.0,1.0,80,0.00,,,1.51,meteohub,2013-09-18 23:57:00,
2013-09-18 20:02:00,58.3,52.2,30.18,NE,45,0.0,1.0,80,0.00,,,1.51,meteohub,2013-09-19 00:02:00,
2013-09-18 20:07:00,57.9,52.2,30.18,NE,45,0.0,1.0,81,0.00,,,1.51,meteohub,2013-09-19 00:07:00,
2013-09-18 20:12:00,57.6,52.2,30.19,NE,45,0.0,1.0,82,0.00,,,1.51,meteohub,2013-09-19 00:12:00,
2013-09-18 20:19:00,57.4,52.0,30.19,NE,45,0.0,0.0,82,0.00,,,1.51,meteohub,2013-09-19 00:19:00,
2013-09-18 20:25:00,57.0,52.0,30.19,NE,45,0.0,0.0,83,0.00,,,1.51,meteohub,2013-09-19 00:25:00,
2013-09-18 20:31:00,56.8,52.0,30.19,NE,45,0.0,0.0,84,0.00,,,1.51,meteohub,2013-09-19 00:31:00,
2013-09-18 20:37:00,56.5,51.6,30.19,NE,45,0.0,0.0,84,0.00,,,1.51,meteohub,2013-09-19 00:37:00,
2013-09-18 20:42:00,56.3,51.8,30.19,NE,45,0.0,0.0,85,0.00,,,1.51,meteohub,2013-09-19 00:42:00,
2013-09-18 20:49:00,55.9,51.4,30.19,NE,45,0.0,0.0,85,0.00,,,1.51,meteohub,2013-09-19 00:49:00,
2013-09-18 20:55:00,55.8,51.3,30.20,NE,45,0.0,0.0,85,0.00,,,1.51,meteohub,2013-09-19 00:55:00,
2013-09-18 21:02:00,55.4,51.3,30.19,NE,45,0.0,0.0,86,0.00,,,1.51,meteohub,2013-09-19 01:02:00,
2013-09-18 21:07:00,55.2,51.4,30.20,NE,45,0.0,0.0,87,0.00,,,1.51,meteohub,2013-09-19 01:07:00,
2013-09-18 21:14:00,55.0,51.3,30.20,NE,45,0.0,0.0,87,0.00,,,1.51,meteohub,2013-09-19 01:14:00,
2013-09-18 21:20:00,54.9,51.4,30.20,NE,45,0.0,0.0,88,0.00,,,1.51,meteohub,2013-09-19 01:20:00,
2013-09-18 21:26:00,54.7,51.3,30.20,NE,45,0.0,0.0,88,0.00,,,1.51,meteohub,2013-09-19 01:26:00,
2013-09-18 21:32:00,54.3,50.9,30.20,NE,45,0.0,0.0,88,0.00,,,1.51,meteohub,2013-09-19 01:32:00,
2013-09-18 21:38:00,54.1,50.7,30.20,NE,45,0.0,0.0,88,0.00,,,1.51,meteohub,2013-09-19 01:38:00,
2013-09-18 21:44:00,53.8,50.5,30.20,NE,45,0.0,0.0,89,0.00,,,1.51,meteohub,2013-09-19 01:44:00,
2013-09-18 21:50:00,53.8,50.5,30.20,NE,45,0.0,0.0,89,0.00,,,1.51,meteohub,2013-09-19 01:50:00,
2013-09-18 21:56:00,53.8,50.5,30.20,NE,45,0.0,0.0,89,0.00,,,1.51,meteohub,2013-09-19 01:56:00,
2013-09-18 22:08:00,52.9,50.0,30.20,NE,45,0.0,0.0,90,0.00,,,1.51,meteohub,2013-09-19 02:08:00,
2013-09-18 22:14:00,54.7,51.8,30.20,NE,45,0.0,0.0,90,0.00,,,1.51,meteohub,2013-09-19 02:14:00,
2013-09-18 22:20:00,53.6,50.7,30.20,NE,45,0.0,0.0,90,0.00,,,1.51,meteohub,2013-09-19 02:20:00,
2013-09-18 22:26:00,53.2,50.7,30.20,NE,45,0.0,0.0,91,0.00,,,1.51,meteohub,2013-09-19 02:26:00,
2013-09-18 22:32:00,53.2,50.7,30.20,NE,45,0.0,0.0,91,0.00,,,1.51,meteohub,2013-09-19 02:32:00,
2013-09-18 22:39:00,53.1,50.5,30.20,NE,45,0.0,0.0,91,0.00,,,1.51,meteohub,2013-09-19 02:39:00,
2013-09-18 22:45:00,53.1,50.5,30.20,NE,45,49.0,0.0,91,0.00,,,1.51,meteohub,2013-09-19 02:45:00,
2013-09-18 22:51:00,54.3,51.8,30.20,NE,45,0.0,49.0,91,0.00,,,1.51,meteohub,2013-09-19 02:51:00,
2013-09-18 22:57:00,54.3,51.8,30.20,NE,45,0.0,49.0,91,0.00,,,1.51,meteohub,2013-09-19 02:57:00,
2013-09-18 23:02:00,54.3,52.0,30.20,NE,45,0.0,49.0,92,0.00,,,1.51,meteohub,2013-09-19 03:02:00,
2013-09-18 23:09:00,52.9,50.5,30.20,NE,45,0.0,0.0,92,0.00,,,1.51,meteohub,2013-09-19 03:09:00,
2013-09-18 23:15:00,52.9,50.5,30.20,NE,45,0.0,0.0,92,0.00,,,1.51,meteohub,2013-09-19 03:15:00,
2013-09-18 23:21:00,52.9,50.5,30.19,NE,45,0.0,0.0,92,0.00,,,1.51,meteohub,2013-09-19 03:21:00,
2013-09-18 23:27:00,52.9,50.5,30.19,NE,45,0.0,0.0,92,0.00,,,1.51,meteohub,2013-09-19 03:27:00,
2013-09-18 23:32:00,52.9,50.5,30.19,NE,45,0.0,0.0,92,0.00,,,1.51,meteohub,2013-09-19 03:32:00,
2013-09-18 23:37:00,52.9,50.5,30.19,NE,45,0.0,0.0,92,0.00,,,1.51,meteohub,2013-09-19 03:37:00,
2013-09-18 23:42:00,52.9,50.5,30.19,NE,45,0.0,0.0,92,0.00,,,1.51,meteohub,2013-09-19 03:42:00,
2013-09-18 23:49:00,53.1,51.1,30.19,NE,45,0.0,0.0,93,0.00,,,1.51,meteohub,2013-09-19 03:49:00,
2013-09-18 23:55:00,53.1,51.1,30.19,NE,45,0.0,0.0,93,0.00,,,1.51,meteohub,2013-09-19 03:55:00,